createdAt,value
2017-02-03T00:00:30.788Z,0
2017-02-03T00:01:41.077Z,0
2017-02-03T00:02:50.952Z,0
2017-02-03T00:04:00.792Z,0
2017-02-03T00:05:10.934Z,0
2017-02-03T00:06:20.768Z,0
2017-02-03T00:07:31.096Z,0
2017-02-03T00:08:41.354Z,0
2017-02-03T00:09:51.251Z,0
2017-02-03T00:11:01.333Z,0
2017-02-03T00:12:11.620Z,0
2017-02-03T00:13:21.870Z,0
2017-02-03T00:14:32.198Z,0
2017-02-03T00:15:42.091Z,0
2017-02-03T00:16:52.359Z,0
2017-02-03T00:18:02.279Z,0
2017-02-03T00:19:12.526Z,0
2017-02-03T00:20:22.019Z,0
2017-02-03T00:21:31.880Z,0
2017-02-03T00:22:42.033Z,0
2017-02-03T00:23:52.315Z,0
2017-02-03T00:25:02.178Z,0
2017-02-03T00:26:11.633Z,0
2017-02-03T00:27:21.482Z,0
2017-02-03T00:28:31.269Z,0
2017-02-03T00:29:41.564Z,0
2017-02-03T00:30:51.841Z,0
2017-02-03T00:32:01.685Z,0
2017-02-03T00:33:11.549Z,0
2017-02-03T00:34:22.092Z,0
2017-02-03T00:35:32.438Z,0
2017-02-03T00:36:42.707Z,0
2017-02-03T00:37:51.751Z,0
2017-02-03T00:39:01.597Z,0
2017-02-03T00:40:11.383Z,0
2017-02-03T00:41:21.231Z,0
2017-02-03T00:42:31.459Z,0
2017-02-03T00:43:41.724Z,0
2017-02-03T00:44:51.192Z,0
2017-02-03T00:46:01.371Z,0
2017-02-03T00:47:11.733Z,0
2017-02-03T00:48:21.957Z,0
2017-02-03T00:49:31.872Z,0
2017-02-03T00:50:42.138Z,0
2017-02-03T00:51:52.801Z,0
2017-02-03T00:53:03.045Z,0
2017-02-03T00:54:13.347Z,0
2017-02-03T00:55:23.298Z,0
2017-02-03T00:56:33.567Z,0
2017-02-03T00:57:43.696Z,0
2017-02-03T00:58:53.995Z,0
2017-02-03T01:00:03.868Z,0
2017-02-03T01:01:13.736Z,0
2017-02-03T01:02:23.566Z,0
2017-02-03T01:03:34.054Z,0
2017-02-03T01:04:44.451Z,0
2017-02-03T01:05:54.707Z,0
2017-02-03T01:07:04.715Z,0
2017-02-03T01:08:14.617Z,0
2017-02-03T01:09:24.729Z,0
2017-02-03T01:10:34.552Z,0
2017-02-03T01:11:44.818Z,0
2017-02-03T01:12:56.084Z,0
2017-02-03T01:14:06.354Z,0
2017-02-03T01:15:16.509Z,0
2017-02-03T01:16:26.801Z,0
2017-02-03T01:17:36.630Z,0
2017-02-03T01:18:46.496Z,0
2017-02-03T01:19:56.339Z,0
2017-02-03T01:21:06.431Z,0
2017-02-03T01:22:15.896Z,0
2017-02-03T01:23:26.198Z,0
2017-02-03T01:24:36.498Z,0
2017-02-03T01:25:46.332Z,0
2017-02-03T01:26:56.112Z,0
2017-02-03T01:28:06.389Z,0
2017-02-03T01:29:16.624Z,0
2017-02-03T01:30:26.062Z,0
2017-02-03T01:31:36.307Z,0
2017-02-03T01:32:46.790Z,0
2017-02-03T01:33:56.754Z,0
2017-02-03T01:35:06.443Z,0
2017-02-03T01:36:16.694Z,0
2017-02-03T01:37:26.943Z,0
2017-02-03T01:38:37.428Z,0
2017-02-03T01:39:47.296Z,0
2017-02-03T01:40:57.540Z,0
2017-02-03T01:42:07.410Z,0
2017-02-03T01:43:16.857Z,0
2017-02-03T01:44:27.398Z,0
2017-02-03T01:45:37.686Z,0
2017-02-03T01:46:47.936Z,0
2017-02-03T01:47:58.189Z,0
2017-02-03T01:49:08.041Z,0
2017-02-03T01:50:18.605Z,0
2017-02-03T01:51:28.890Z,0
2017-02-03T01:52:38.751Z,0
2017-02-03T01:53:48.626Z,0
2017-02-03T01:54:58.953Z,0
2017-02-03T01:56:09.080Z,0
2017-02-03T01:57:18.515Z,0
2017-02-03T01:58:28.901Z,0
2017-02-03T01:59:39.179Z,0
2017-02-03T02:00:49.110Z,0
2017-02-03T02:01:59.625Z,0
2017-02-03T02:03:09.877Z,0
2017-02-03T02:04:19.720Z,0
2017-02-03T02:05:29.607Z,0
2017-02-03T02:06:39.574Z,0
2017-02-03T02:07:49.669Z,0
2017-02-03T02:08:59.506Z,0
2017-02-03T02:10:09.007Z,0
2017-02-03T02:11:18.846Z,0
2017-02-03T02:12:29.114Z,0
2017-02-03T02:13:39.187Z,0
2017-02-03T02:14:49.443Z,0
2017-02-03T02:15:59.727Z,0
2017-02-03T02:17:10.019Z,0
2017-02-03T02:18:20.290Z,0
2017-02-03T02:19:30.392Z,0
2017-02-03T02:20:40.667Z,0
2017-02-03T02:21:50.908Z,0
2017-02-03T02:23:01.177Z,0
2017-02-03T02:24:11.433Z,0
2017-02-03T02:25:21.175Z,0
2017-02-03T02:26:31.415Z,0
2017-02-03T02:27:41.688Z,0
2017-02-03T02:28:52.138Z,0
2017-02-03T02:30:01.983Z,0
2017-02-03T02:31:12.077Z,0
2017-02-03T02:32:22.359Z,0
2017-02-03T02:33:32.662Z,0
2017-02-03T02:34:42.090Z,0
2017-02-03T02:35:52.372Z,0
2017-02-03T02:37:02.104Z,0
2017-02-03T02:38:12.393Z,0
2017-02-03T02:39:22.640Z,0
2017-02-03T02:40:31.671Z,0
2017-02-03T02:41:41.933Z,0
2017-02-03T02:42:52.473Z,0
2017-02-03T02:44:01.920Z,0
2017-02-03T02:45:11.769Z,0
2017-02-03T02:46:22.030Z,0
2017-02-03T02:47:32.317Z,0
2017-02-03T02:48:42.445Z,0
2017-02-03T02:49:52.330Z,0
2017-02-03T02:51:02.351Z,0
2017-02-03T02:52:12.583Z,0
2017-02-03T02:53:22.836Z,0
2017-02-03T02:54:33.358Z,0
2017-02-03T02:55:43.603Z,0
2017-02-03T02:56:53.453Z,0
2017-02-03T02:58:02.907Z,0
2017-02-03T02:59:13.194Z,0
2017-02-03T03:00:23.703Z,0
2017-02-03T03:01:33.985Z,0
2017-02-03T03:02:44.223Z,0
2017-02-03T03:03:54.184Z,0
2017-02-03T03:05:04.420Z,0
2017-02-03T03:06:14.545Z,0
2017-02-03T03:07:24.852Z,0
2017-02-03T03:08:35.091Z,0
2017-02-03T03:09:45.421Z,0
2017-02-03T03:10:54.937Z,0
2017-02-03T03:12:05.145Z,0
2017-02-03T03:13:15.028Z,0
2017-02-03T03:14:24.869Z,0
2017-02-03T03:15:35.135Z,0
2017-02-03T03:16:45.426Z,0
2017-02-03T03:17:55.542Z,0
2017-02-03T03:19:06.060Z,0
2017-02-03T03:20:15.899Z,0
2017-02-03T03:21:25.742Z,0
2017-02-03T03:22:35.594Z,0
2017-02-03T03:23:46.439Z,0
2017-02-03T03:24:56.684Z,0
2017-02-03T03:26:06.119Z,0
2017-02-03T03:27:16.391Z,0
2017-02-03T03:28:26.214Z,0
2017-02-03T03:29:36.419Z,0
2017-02-03T03:30:45.992Z,0
2017-02-03T03:31:56.240Z,0
2017-02-03T03:33:06.494Z,0
2017-02-03T03:34:16.885Z,0
2017-02-03T03:35:26.583Z,0
2017-02-03T03:36:36.896Z,0
2017-02-03T03:37:47.185Z,0
2017-02-03T03:38:57.161Z,0
2017-02-03T03:40:07.033Z,0
2017-02-03T03:41:17.171Z,0
2017-02-03T03:42:27.440Z,0
2017-02-03T03:43:36.914Z,0
2017-02-03T03:44:47.164Z,0
2017-02-03T03:45:56.629Z,0
2017-02-03T03:47:07.202Z,0
2017-02-03T03:48:17.441Z,0
2017-02-03T03:49:27.675Z,0
2017-02-03T03:50:37.511Z,0
2017-02-03T03:51:47.770Z,0
2017-02-03T03:52:58.367Z,0
2017-02-03T03:54:07.404Z,0
2017-02-03T03:55:17.367Z,0
2017-02-03T03:56:27.702Z,0
2017-02-03T03:57:37.979Z,0
2017-02-03T03:58:48.095Z,0
2017-02-03T03:59:57.534Z,0
2017-02-03T04:01:07.829Z,0
2017-02-03T04:02:17.707Z,0
2017-02-03T04:03:27.979Z,0
2017-02-03T04:04:38.471Z,0
2017-02-03T04:05:48.812Z,0
2017-02-03T04:06:58.736Z,0
2017-02-03T04:08:08.971Z,0
2017-02-03T04:09:19.246Z,0
2017-02-03T04:10:29.767Z,0
2017-02-03T04:11:39.594Z,0
2017-02-03T04:12:49.437Z,0
2017-02-03T04:13:59.791Z,0
2017-02-03T04:15:09.626Z,0
2017-02-03T04:16:20.232Z,0
2017-02-03T04:17:30.095Z,0
2017-02-03T04:18:39.540Z,0
2017-02-03T04:19:49.774Z,0
2017-02-03T04:21:00.084Z,0
2017-02-03T04:22:10.603Z,0
2017-02-03T04:23:20.534Z,0
2017-02-03T04:24:30.778Z,0
2017-02-03T04:25:41.053Z,0
2017-02-03T04:26:50.981Z,0
2017-02-03T04:28:01.143Z,0
2017-02-03T04:29:11.393Z,0
2017-02-03T04:30:21.633Z,0
2017-02-03T04:31:32.012Z,0
2017-02-03T04:32:42.251Z,0
2017-02-03T04:33:51.940Z,0
2017-02-03T04:35:02.221Z,0
2017-02-03T04:36:12.488Z,0
2017-02-03T04:37:22.746Z,0
2017-02-03T04:38:32.648Z,0
2017-02-03T04:39:41.935Z,0
2017-02-03T04:40:51.779Z,0
2017-02-03T04:42:02.026Z,0
2017-02-03T04:43:11.905Z,0
2017-02-03T04:44:21.746Z,0
2017-02-03T04:45:31.867Z,0
2017-02-03T04:46:41.719Z,0
2017-02-03T04:47:51.593Z,0
2017-02-03T04:49:01.866Z,0
2017-02-03T04:50:11.705Z,0
2017-02-03T04:51:22.198Z,0
2017-02-03T04:52:32.442Z,0
2017-02-03T04:53:42.669Z,0
2017-02-03T04:54:52.100Z,0
2017-02-03T04:56:02.352Z,0
2017-02-03T04:57:12.906Z,0
2017-02-03T04:58:22.914Z,0
2017-02-03T04:59:33.221Z,0
2017-02-03T05:00:43.450Z,0
2017-02-03T05:01:53.394Z,0
2017-02-03T05:03:03.958Z,0
2017-02-03T05:04:14.206Z,0
2017-02-03T05:05:24.507Z,0
2017-02-03T05:06:34.429Z,0
2017-02-03T05:07:44.457Z,0
2017-02-03T05:08:54.549Z,0
2017-02-03T05:10:04.075Z,0
2017-02-03T05:11:13.907Z,0
2017-02-03T05:12:23.744Z,0
2017-02-03T05:13:33.579Z,0
2017-02-03T05:14:43.305Z,0
2017-02-03T05:15:53.565Z,0
2017-02-03T05:17:03.806Z,0
2017-02-03T05:18:14.070Z,0
2017-02-03T05:19:24.397Z,0
2017-02-03T05:20:34.916Z,0
2017-02-03T05:21:45.225Z,0
2017-02-03T05:22:55.072Z,0
2017-02-03T05:24:05.358Z,0
2017-02-03T05:25:15.674Z,0
2017-02-03T05:26:25.846Z,0
2017-02-03T05:27:35.707Z,0
2017-02-03T05:28:45.967Z,0
2017-02-03T05:29:56.204Z,0
2017-02-03T05:31:05.635Z,0
2017-02-03T05:32:16.149Z,0
2017-02-03T05:33:26.384Z,0
2017-02-03T05:34:36.634Z,0
2017-02-03T05:35:47.006Z,0
2017-02-03T05:36:56.865Z,0
2017-02-03T05:38:07.494Z,0
2017-02-03T05:39:17.832Z,0
2017-02-03T05:40:28.117Z,0
2017-02-03T05:41:38.402Z,0
2017-02-03T05:42:48.483Z,0
2017-02-03T05:43:58.602Z,0
2017-02-03T05:45:08.442Z,0
2017-02-03T05:46:18.717Z,0
2017-02-03T05:47:29.045Z,0
2017-02-03T05:48:38.900Z,0
2017-02-03T05:49:49.387Z,0
2017-02-03T05:50:58.836Z,0
2017-02-03T05:52:08.309Z,0
2017-02-03T05:53:18.549Z,0
2017-02-03T05:54:28.797Z,0
2017-02-03T05:55:39.279Z,0
2017-02-03T05:56:49.534Z,0
2017-02-03T05:57:59.001Z,0
2017-02-03T05:59:08.504Z,0
2017-02-03T06:00:18.749Z,0
2017-02-03T06:01:29.264Z,0
2017-02-03T06:02:39.539Z,0
2017-02-03T06:03:49.825Z,0
2017-02-03T06:04:59.684Z,0
2017-02-03T06:06:09.624Z,0
2017-02-03T06:07:20.130Z,0
2017-02-03T06:08:30.654Z,0
2017-02-03T06:09:40.491Z,0
2017-02-03T06:10:50.740Z,0
2017-02-03T06:12:01.020Z,0
2017-02-03T06:13:10.304Z,0
2017-02-03T06:14:20.226Z,0
2017-02-03T06:15:30.464Z,0
2017-02-03T06:16:40.299Z,0
2017-02-03T06:17:49.746Z,0
2017-02-03T06:18:59.869Z,0
2017-02-03T06:20:09.826Z,0
2017-02-03T06:21:19.663Z,0
2017-02-03T06:22:29.959Z,0
2017-02-03T06:23:40.228Z,0
2017-02-03T06:24:50.306Z,0
2017-02-03T06:26:00.192Z,0
2017-02-03T06:27:10.509Z,0
2017-02-03T06:28:20.376Z,0
2017-02-03T06:29:30.700Z,0
2017-02-03T06:30:41.191Z,0
2017-02-03T06:31:51.057Z,0
2017-02-03T06:33:01.387Z,0
2017-02-03T06:34:11.246Z,0
2017-02-03T06:35:21.492Z,0
2017-02-03T06:36:31.740Z,0
2017-02-03T06:37:41.991Z,0
2017-02-03T06:38:51.835Z,0
2017-02-03T06:40:02.085Z,0
2017-02-03T06:41:11.982Z,0
2017-02-03T06:42:22.555Z,5
2017-02-03T06:43:32.404Z,5
2017-02-03T06:44:42.699Z,5
2017-02-03T06:45:52.954Z,5
2017-02-03T06:47:02.792Z,5
2017-02-03T06:48:12.870Z,5
2017-02-03T06:49:22.755Z,10
2017-02-03T06:50:32.179Z,10
2017-02-03T06:51:42.009Z,10
2017-02-03T06:52:52.284Z,10
2017-02-03T06:54:02.764Z,10
2017-02-03T06:55:13.008Z,15
2017-02-03T06:56:23.410Z,15
2017-02-03T06:57:32.881Z,15
2017-02-03T06:58:43.169Z,15
2017-02-03T06:59:53.755Z,20
2017-02-03T07:01:03.624Z,20
2017-02-03T07:02:13.529Z,20
2017-02-03T07:03:23.852Z,25
2017-02-03T07:04:33.758Z,25
2017-02-03T07:05:43.983Z,30
2017-02-03T07:06:53.440Z,30
2017-02-03T07:08:03.694Z,30
2017-02-03T07:09:13.922Z,35
2017-02-03T07:10:23.803Z,35
2017-02-03T07:11:33.913Z,35
2017-02-03T07:12:44.175Z,35
2017-02-03T07:13:54.409Z,30
2017-02-03T07:15:04.707Z,30
2017-02-03T07:16:14.202Z,30
2017-02-03T07:17:24.720Z,25
2017-02-03T07:18:34.556Z,25
2017-02-03T07:19:44.395Z,30
2017-02-03T07:20:54.680Z,30
2017-02-03T07:22:04.532Z,30
2017-02-03T07:23:14.776Z,35
2017-02-03T07:24:24.620Z,35
2017-02-03T07:25:34.868Z,40
2017-02-03T07:26:45.141Z,40
2017-02-03T07:27:55.384Z,45
2017-02-03T07:29:05.925Z,50
2017-02-03T07:30:16.201Z,55
2017-02-03T07:31:26.047Z,60
2017-02-03T07:32:36.288Z,65
2017-02-03T07:33:46.493Z,70
2017-02-03T07:34:56.625Z,80
2017-02-03T07:36:06.861Z,85
2017-02-03T07:37:16.300Z,95
2017-02-03T07:38:25.735Z,95
2017-02-03T07:39:35.304Z,100
2017-02-03T07:40:45.810Z,100
2017-02-03T07:41:54.850Z,100
2017-02-03T07:43:04.697Z,105
2017-02-03T07:44:14.949Z,105
2017-02-03T07:45:24.820Z,105
2017-02-03T07:46:35.381Z,105
2017-02-03T07:47:45.648Z,110
2017-02-03T07:48:55.987Z,120
2017-02-03T07:50:05.444Z,130
2017-02-03T07:51:15.313Z,140
2017-02-03T07:52:25.866Z,145
2017-02-03T07:53:35.708Z,155
2017-02-03T07:54:45.150Z,160
2017-02-03T07:55:54.984Z,165
2017-02-03T07:57:04.878Z,175
2017-02-03T07:58:15.041Z,185
2017-02-03T07:59:24.915Z,200
2017-02-03T08:00:34.810Z,210
2017-02-03T08:01:45.105Z,230
2017-02-03T08:02:55.339Z,245
2017-02-03T08:04:05.431Z,245
2017-02-03T08:05:15.271Z,235
2017-02-03T08:06:25.107Z,230
2017-02-03T08:07:35.013Z,225
2017-02-03T08:08:44.476Z,230
2017-02-03T08:09:55.012Z,220
2017-02-03T08:11:04.457Z,205
2017-02-03T08:12:14.758Z,200
2017-02-03T08:13:25.111Z,205
2017-02-03T08:14:35.373Z,215
2017-02-03T08:15:45.906Z,215
2017-02-03T08:16:55.880Z,210
2017-02-03T08:18:06.202Z,200
2017-02-03T08:19:16.464Z,200
2017-02-03T08:20:26.737Z,200
2017-02-03T08:21:37.346Z,195
2017-02-03T08:22:47.575Z,200
2017-02-03T08:23:57.843Z,210
2017-02-03T08:25:07.674Z,210
2017-02-03T08:26:17.177Z,210
2017-02-03T08:27:27.336Z,215
2017-02-03T08:28:37.224Z,220
2017-02-03T08:29:47.192Z,230
2017-02-03T08:30:57.065Z,245
2017-02-03T08:32:06.904Z,250
2017-02-03T08:33:17.139Z,240
2017-02-03T08:34:27.487Z,235
2017-02-03T08:35:37.733Z,240
2017-02-03T08:36:47.663Z,235
2017-02-03T08:37:57.924Z,225
2017-02-03T08:39:08.017Z,225
2017-02-03T08:40:17.852Z,230
2017-02-03T08:41:27.734Z,250
2017-02-03T08:42:37.971Z,265
2017-02-03T08:43:48.258Z,275
2017-02-03T08:44:58.492Z,270
2017-02-03T08:46:08.729Z,265
2017-02-03T08:47:19.018Z,250
2017-02-03T08:48:28.893Z,245
2017-02-03T08:49:38.829Z,230
2017-02-03T08:50:48.963Z,220
2017-02-03T08:51:59.287Z,210
2017-02-03T08:53:09.533Z,205
2017-02-03T08:54:19.771Z,195
2017-02-03T08:55:29.651Z,170
2017-02-03T08:56:40.175Z,160
2017-02-03T08:57:50.425Z,155
2017-02-03T08:59:00.694Z,145
2017-02-03T09:00:10.964Z,145
2017-02-03T09:01:21.256Z,135
2017-02-03T09:02:31.034Z,130
2017-02-03T09:03:40.905Z,135
2017-02-03T09:04:51.269Z,135
2017-02-03T09:06:01.563Z,130
2017-02-03T09:07:11.851Z,135
2017-02-03T09:08:22.431Z,140
2017-02-03T09:09:32.689Z,135
2017-02-03T09:10:42.568Z,130
2017-02-03T09:11:52.826Z,135
2017-02-03T09:13:03.074Z,145
2017-02-03T09:14:13.655Z,170
2017-02-03T09:15:23.931Z,185
2017-02-03T09:16:34.184Z,215
2017-02-03T09:17:44.637Z,250
2017-02-03T09:18:54.900Z,275
2017-02-03T09:20:05.035Z,310
2017-02-03T09:21:15.271Z,325
2017-02-03T09:22:25.164Z,345
2017-02-03T09:23:35.410Z,355
2017-02-03T09:24:45.671Z,355
2017-02-03T09:25:56.228Z,340
2017-02-03T09:27:05.829Z,335
2017-02-03T09:28:16.091Z,340
2017-02-03T09:29:26.349Z,350
2017-02-03T09:30:36.205Z,365
2017-02-03T09:31:46.004Z,390
2017-02-03T09:32:56.297Z,415
2017-02-03T09:34:06.285Z,430
2017-02-03T09:35:16.732Z,455
2017-02-03T09:36:26.979Z,475
2017-02-03T09:37:36.806Z,495
2017-02-03T09:38:46.735Z,515
2017-02-03T09:39:57.110Z,525
2017-02-03T09:41:07.395Z,530
2017-02-03T09:42:17.655Z,540
2017-02-03T09:43:27.403Z,550
2017-02-03T09:44:37.425Z,550
2017-02-03T09:45:47.745Z,565
2017-02-03T09:46:57.192Z,590
2017-02-03T09:48:06.666Z,615
2017-02-03T09:49:17.313Z,630
2017-02-03T09:50:27.173Z,680
2017-02-03T09:51:37.435Z,795
2017-02-03T09:52:47.330Z,775
2017-02-03T09:53:57.312Z,910
2017-02-03T09:55:07.873Z,970
2017-02-03T09:56:17.726Z,1025
2017-02-03T09:57:28.026Z,1040
2017-02-03T09:58:38.279Z,1090
2017-02-03T09:59:48.126Z,1105
2017-02-03T10:00:58.385Z,1020
2017-02-03T10:02:07.830Z,965
2017-02-03T10:03:17.743Z,980
2017-02-03T10:04:27.994Z,945
2017-02-03T10:05:37.874Z,905
2017-02-03T10:06:48.471Z,880
2017-02-03T10:07:58.828Z,860
2017-02-03T10:09:08.312Z,850
2017-02-03T10:10:18.197Z,860
2017-02-03T10:11:28.504Z,865
2017-02-03T10:12:39.141Z,840
2017-02-03T10:13:49.421Z,825
2017-02-03T10:14:59.716Z,840
2017-02-03T10:16:09.629Z,885
2017-02-03T10:17:20.118Z,875
2017-02-03T10:18:30.753Z,830
2017-02-03T10:19:41.019Z,815
2017-02-03T10:20:50.524Z,795
2017-02-03T10:22:00.772Z,785
2017-02-03T10:23:10.623Z,790
2017-02-03T10:24:20.836Z,810
2017-02-03T10:25:30.732Z,795
2017-02-03T10:26:40.634Z,715
2017-02-03T10:27:50.890Z,615
2017-02-03T10:29:01.215Z,595
2017-02-03T10:30:11.385Z,560
2017-02-03T10:31:21.743Z,525
2017-02-03T10:32:32.026Z,480
2017-02-03T10:33:42.269Z,430
2017-02-03T10:34:52.130Z,375
2017-02-03T10:36:02.715Z,335
2017-02-03T10:37:13.064Z,300
2017-02-03T10:38:23.361Z,275
2017-02-03T10:39:33.639Z,260
2017-02-03T10:40:43.109Z,260
2017-02-03T10:41:53.685Z,280
2017-02-03T10:43:04.067Z,315
2017-02-03T10:44:13.960Z,330
2017-02-03T10:45:24.230Z,340
2017-02-03T10:46:34.109Z,330
2017-02-03T10:47:44.307Z,325
2017-02-03T10:48:54.281Z,320
2017-02-03T10:50:03.865Z,305
2017-02-03T10:51:13.315Z,295
2017-02-03T10:52:23.225Z,280
2017-02-03T10:53:33.820Z,275
2017-02-03T10:54:44.192Z,270
2017-02-03T10:55:54.058Z,265
2017-02-03T10:57:04.432Z,265
2017-02-03T10:58:14.692Z,265
2017-02-03T10:59:24.850Z,250
2017-02-03T11:00:35.178Z,240
2017-02-03T11:01:44.705Z,225
2017-02-03T11:02:54.563Z,215
2017-02-03T11:04:04.478Z,210
2017-02-03T11:05:14.670Z,215
2017-02-03T11:06:25.017Z,225
2017-02-03T11:07:35.267Z,235
2017-02-03T11:08:44.740Z,235
2017-02-03T11:09:55.003Z,235
2017-02-03T11:11:05.630Z,240
2017-02-03T11:12:15.920Z,250
2017-02-03T11:13:26.213Z,255
2017-02-03T11:14:36.071Z,250
2017-02-03T11:15:45.994Z,250
2017-02-03T11:16:56.601Z,255
2017-02-03T11:18:06.855Z,260
2017-02-03T11:19:16.860Z,255
2017-02-03T11:20:27.157Z,245
2017-02-03T11:21:37.422Z,240
2017-02-03T11:22:48.006Z,240
2017-02-03T11:23:58.280Z,240
2017-02-03T11:25:08.550Z,240
2017-02-03T11:26:18.812Z,240
2017-02-03T11:27:29.092Z,230
2017-02-03T11:28:38.998Z,230
2017-02-03T11:29:48.862Z,220
2017-02-03T11:30:59.114Z,215
2017-02-03T11:32:09.133Z,215
2017-02-03T11:33:19.409Z,220
2017-02-03T11:34:29.973Z,230
2017-02-03T11:35:39.848Z,240
2017-02-03T11:36:50.163Z,235
2017-02-03T11:38:00.344Z,220
2017-02-03T11:39:10.602Z,200
2017-02-03T11:40:20.389Z,190
2017-02-03T11:41:30.702Z,185
2017-02-03T11:42:40.167Z,185
2017-02-03T11:43:50.036Z,185
2017-02-03T11:44:59.472Z,185
2017-02-03T11:46:09.674Z,185
2017-02-03T11:47:19.944Z,175
2017-02-03T11:48:29.388Z,170
2017-02-03T11:49:39.242Z,170
2017-02-03T11:50:48.723Z,170
2017-02-03T11:51:59.387Z,175
2017-02-03T11:53:09.661Z,185
2017-02-03T11:54:19.524Z,190
2017-02-03T11:55:29.482Z,190
2017-02-03T11:56:39.385Z,180
2017-02-03T11:57:49.942Z,170
2017-02-03T11:59:00.213Z,160
2017-02-03T12:00:10.503Z,155
2017-02-03T12:01:20.363Z,155
2017-02-03T12:02:30.673Z,150
2017-02-03T12:03:40.935Z,150
2017-02-03T12:04:51.263Z,150
2017-02-03T12:06:01.496Z,150
2017-02-03T12:07:11.788Z,155
2017-02-03T12:08:21.655Z,170
2017-02-03T12:09:32.274Z,195
2017-02-03T12:10:42.634Z,215
2017-02-03T12:11:52.875Z,235
2017-02-03T12:13:03.127Z,230
2017-02-03T12:14:12.983Z,210
2017-02-03T12:15:23.552Z,205
2017-02-03T12:16:32.998Z,200
2017-02-03T12:17:42.845Z,200
2017-02-03T12:18:52.757Z,200
2017-02-03T12:20:03.020Z,190
2017-02-03T12:21:13.181Z,170
2017-02-03T12:22:23.049Z,155
2017-02-03T12:23:32.889Z,150
2017-02-03T12:24:43.161Z,145
2017-02-03T12:25:53.559Z,150
2017-02-03T12:27:04.118Z,155
2017-02-03T12:28:14.448Z,165
2017-02-03T12:29:24.285Z,180
2017-02-03T12:30:34.575Z,190
2017-02-03T12:31:44.841Z,190
2017-02-03T12:32:55.147Z,185
2017-02-03T12:34:04.988Z,185
2017-02-03T12:35:15.253Z,185
2017-02-03T12:36:25.125Z,180
2017-02-03T12:37:35.097Z,175
2017-02-03T12:38:45.643Z,155
2017-02-03T12:39:55.505Z,145
2017-02-03T12:41:05.810Z,135
2017-02-03T12:42:16.170Z,130
2017-02-03T12:43:26.506Z,120
2017-02-03T12:44:37.123Z,115
2017-02-03T12:45:47.363Z,105
2017-02-03T12:46:57.241Z,100
2017-02-03T12:48:07.127Z,95
2017-02-03T12:49:49.551Z,90
2017-02-03T12:50:59.812Z,85
2017-02-03T12:52:09.659Z,75
2017-02-03T12:53:20.063Z,70
2017-02-03T12:54:30.323Z,65
2017-02-03T12:55:40.940Z,65
2017-02-03T12:56:51.262Z,60
2017-02-03T12:58:00.698Z,55
2017-02-03T12:59:10.939Z,50
2017-02-03T13:00:20.798Z,45
2017-02-03T13:01:31.344Z,45
2017-02-03T13:02:40.818Z,40
2017-02-03T13:03:51.110Z,40
2017-02-03T13:05:00.958Z,40
2017-02-03T13:06:10.796Z,40
2017-02-03T13:07:21.428Z,40
2017-02-03T13:08:31.724Z,40
2017-02-03T13:09:41.988Z,40
2017-02-03T13:10:52.270Z,40
2017-02-03T13:12:02.113Z,40
2017-02-03T13:13:12.384Z,45
2017-02-03T13:14:22.234Z,50
2017-02-03T13:15:32.478Z,60
2017-02-03T13:16:42.759Z,80
2017-02-03T13:17:53.001Z,105
2017-02-03T13:19:03.163Z,120
2017-02-03T13:20:13.059Z,130
2017-02-03T13:21:22.904Z,140
2017-02-03T13:22:33.293Z,140
2017-02-03T13:23:43.521Z,145
2017-02-03T13:24:53.743Z,150
2017-02-03T13:26:03.658Z,155
2017-02-03T13:27:13.938Z,160
2017-02-03T13:28:24.250Z,155
2017-02-03T13:29:33.702Z,145
2017-02-03T13:30:44.320Z,140
2017-02-03T13:31:53.869Z,130
2017-02-03T13:33:04.109Z,120
2017-02-03T13:34:14.356Z,115
2017-02-03T13:35:24.645Z,115
2017-02-03T13:36:34.862Z,115
2017-02-03T13:37:45.114Z,115
2017-02-03T13:38:54.955Z,115
2017-02-03T13:40:04.804Z,115
2017-02-03T13:41:14.748Z,110
2017-02-03T13:42:25.349Z,110
2017-02-03T13:43:34.790Z,105
2017-02-03T13:44:45.065Z,110
2017-02-03T13:45:55.324Z,115
2017-02-03T13:47:05.222Z,125
2017-02-03T13:48:15.380Z,130
2017-02-03T13:49:25.214Z,130
2017-02-03T13:50:35.592Z,135
2017-02-03T13:51:45.531Z,140
2017-02-03T13:52:55.790Z,140
2017-02-03T13:54:05.941Z,145
2017-02-03T13:55:16.211Z,155
2017-02-03T13:56:26.486Z,160
2017-02-03T13:57:36.684Z,165
2017-02-03T13:58:46.535Z,165
2017-02-03T13:59:57.074Z,170
2017-02-03T14:01:07.369Z,170
2017-02-03T14:02:17.657Z,170
2017-02-03T14:03:27.533Z,175
2017-02-03T14:04:37.423Z,175
2017-02-03T14:05:48.016Z,175
2017-02-03T14:06:57.856Z,170
2017-02-03T14:08:07.739Z,165
2017-02-03T14:09:17.583Z,150
2017-02-03T14:10:27.449Z,140
2017-02-03T14:11:37.188Z,130
2017-02-03T14:12:47.503Z,120
2017-02-03T14:13:57.376Z,110
2017-02-03T14:15:07.728Z,105
2017-02-03T14:16:18.050Z,100
2017-02-03T14:17:28.188Z,95
2017-02-03T14:18:38.048Z,95
2017-02-03T14:19:48.351Z,95
2017-02-03T14:20:58.184Z,95
2017-02-03T14:22:08.079Z,105
2017-02-03T14:23:18.640Z,110
2017-02-03T14:24:28.089Z,120
2017-02-03T14:25:38.369Z,125
2017-02-03T14:26:48.273Z,125
2017-02-03T14:27:58.112Z,120
2017-02-03T14:29:08.281Z,115
2017-02-03T14:30:18.238Z,110
2017-02-03T14:31:28.489Z,105
2017-02-03T14:32:38.766Z,100
2017-02-03T14:33:48.616Z,95
2017-02-03T14:34:59.281Z,95
2017-02-03T14:36:09.566Z,90
2017-02-03T14:37:19.005Z,85
2017-02-03T14:38:28.849Z,80
2017-02-03T14:39:39.134Z,80
2017-02-03T14:40:49.296Z,80
